Terminal Aerodrome Forecast
Issued by NWS Des Moines, IA

Home | Current Version | Previous Version | Text Only | Print | Product List | Glossary On
Versions: 1 2 3 4 5 6 7 8 9 10 11 12 13 14 15 16 17 18 19 20 21 22 23 24 25 26 27 28
000
FTUS43 KDMX 270526
TAFDSM
TAF
KDSM 270526Z 2706/2806 19010KT P6SM -RA SCT100 OVC130
      TEMPO 2706/2708 18015G25KT
     FM271500 18010KT P6SM SCT030 BKN050
     FM272300 VRB06KT P6SM VCTS SCT030CB BKN050=

USA.gov is the U.S. government's official web portal to all federal, state and local government web resources and services.